Date,TemperatureHighF,TemperatureAvgF,TemperatureLowF,DewpointHighF,DewpointAvgF,DewpointLowF,HumidityHigh,HumidityAvg,HumidityLow,PressureMaxIn,PressureMinIn,WindSpeedMaxMPH,WindSpeedAvgMPH,GustSpeedMaxMPH,PrecipitationSumIn
2013-10-1,48.7,40.0,32.9,45.0,38.6,32.0,99,95,79,30.13,29.93,2,0,4,0.08
2013-10-2,47.5,41.3,35.3,45.0,40.2,35.0,99,96,87,30.15,30.05,0,0,2,0.21
2013-10-3,53.3,41.5,32.1,47.0,38.9,31.0,99,91,70,30.47,30.16,2,0,5,0.00
2013-10-4,57.8,40.5,29.8,47.0,36.5,29.0,98,87,47,30.56,30.41,0,0,2,0.00
2013-10-5,61.3,43.4,30.5,48.0,38.7,30.0,98,85,52,30.45,30.27,1,0,2,0.00
2013-10-6,60.8,43.5,31.9,49.0,39.7,31.0,98,88,56,30.28,29.92,1,0,2,0.00
2013-10-7,56.3,43.6,36.1,49.0,40.5,35.0,98,89,67,29.95,29.87,2,0,6,0.00
2013-10-8,48.5,41.7,35.6,45.0,39.7,34.0,98,93,77,30.07,29.88,5,0,5,0.23
2013-10-9,55.1,39.8,28.4,45.0,36.0,27.0,98,87,52,30.17,29.92,1,0,2,0.00
2013-10-12,51.7,44.9,40.6,45.0,34.5,-99.9,95,81,64,30.19,30.07,0,-26,1,0.00
2013-10-13,57.0,43.1,32.1,44.0,38.3,31.0,98,85,54,30.32,30.19,0,0,4,0.00
2013-10-19,38.3,33.2,35.0,36.0,10.5,-99.9,95,78,94,30.19,30.17,0,-91,0,0.00
2013-10-20,64.2,42.4,29.7,51.0,38.9,29.0,98,89,55,30.23,30.11,0,0,1,0.00
2013-10-21,64.4,43.2,30.6,52.0,39.7,30.0,98,89,51,30.24,30.13,0,0,3,0.00
2013-10-22,62.7,42.6,30.4,51.0,39.3,29.0,98,89,58,30.23,30.10,0,0,2,0.00
2013-10-23,61.6,42.0,30.1,51.0,38.9,29.0,98,90,59,30.20,30.10,0,0,2,0.00
2013-10-24,58.9,42.0,30.1,49.0,39.0,29.0,98,90,65,30.18,30.07,0,0,2,0.00
2013-10-25,59.0,40.0,29.4,49.0,37.4,28.0,98,91,65,30.31,30.17,0,0,1,0.00
2013-10-26,57.3,39.4,29.4,48.0,36.9,28.0,98,91,67,30.35,30.10,0,0,1,0.00
2013-10-27,52.0,42.5,34.8,46.0,40.3,34.0,98,92,69,30.09,29.82,0,0,3,0.00
2013-10-28,53.2,40.6,28.0,40.0,30.3,-99.9,95,75,36,29.98,29.89,1,-10,5,0.00
2013-10-29,49.6,32.1,23.0,35.0,27.6,22.0,97,85,46,30.07,29.97,1,0,2,0.00
2013-10-30,55.7,37.1,25.1,40.0,30.2,24.0,97,79,40,30.10,30.05,4,0,6,0.00
2013-10-31,55.9,44.7,34.4,45.0,40.0,33.0,96,84,63,30.20,30.04,2,0,7,0.00